sensor_id;sensor_type;location;lat;lon;timestamp;temperature;humidity
5346;DHT22;2695;49.444;11.054;2023-08-21T00:00:52;27.60;99.90
5346;DHT22;2695;49.444;11.054;2023-08-21T00:03:20;27.60;99.90
5346;DHT22;2695;49.444;11.054;2023-08-21T00:05:48;27.60;99.90
5346;DHT22;2695;49.444;11.054;2023-08-21T00:08:16;27.60;99.90
5346;DHT22;2695;49.444;11.054;2023-08-21T00:10:45;27.60;99.90
5346;DHT22;2695;49.444;11.054;2023-08-21T00:13:14;27.50;99.90
5346;DHT22;2695;49.444;11.054;2023-08-21T00:15:42;27.40;99.90
5346;DHT22;2695;49.444;11.054;2023-08-21T00:18:10;27.40;99.90
5346;DHT22;2695;49.444;11.054;2023-08-21T00:20:38;27.40;99.90
5346;DHT22;2695;49.444;11.054;2023-08-21T00:23:08;27.40;99.90
5346;DHT22;2695;49.444;11.054;2023-08-21T00:25:36;27.40;99.90
5346;DHT22;2695;49.444;11.054;2023-08-21T00:28:06;27.30;99.90
5346;DHT22;2695;49.444;11.054;2023-08-21T00:30:34;27.40;99.90
5346;DHT22;2695;49.444;11.054;2023-08-21T00:33:02;27.40;99.90
5346;DHT22;2695;49.444;11.054;2023-08-21T00:35:30;27.40;99.90
5346;DHT22;2695;49.444;11.054;2023-08-21T00:37:58;27.40;99.90
5346;DHT22;2695;49.444;11.054;2023-08-21T00:40:26;27.40;99.90
5346;DHT22;2695;49.444;11.054;2023-08-21T00:42:54;27.40;99.90
5346;DHT22;2695;49.444;11.054;2023-08-21T00:45:24;27.50;99.90
5346;DHT22;2695;49.444;11.054;2023-08-21T00:47:52;27.50;99.90
5346;DHT22;2695;49.444;11.054;2023-08-21T00:50:20;27.50;99.90
5346;DHT22;2695;49.444;11.054;2023-08-21T00:52:49;27.50;99.90
5346;DHT22;2695;49.444;11.054;2023-08-21T00:55:17;27.50;99.90
5346;DHT22;2695;49.444;11.054;2023-08-21T00:57:45;27.50;99.90
5346;DHT22;2695;49.444;11.054;2023-08-21T01:00:13;27.40;99.90
5346;DHT22;2695;49.444;11.054;2023-08-21T01:02:43;27.40;99.90
5346;DHT22;2695;49.444;11.054;2023-08-21T01:05:11;27.50;99.90
5346;DHT22;2695;49.444;11.054;2023-08-21T01:07:47;27.40;99.90
5346;DHT22;2695;49.444;11.054;2023-08-21T01:10:22;27.40;99.90
5346;DHT22;2695;49.444;11.054;2023-08-21T01:12:57;27.40;99.90
5346;DHT22;2695;49.444;11.054;2023-08-21T01:15:29;27.40;99.90
5346;DHT22;2695;49.444;11.054;2023-08-21T01:17:59;27.40;99.90
5346;DHT22;2695;49.444;11.054;2023-08-21T01:20:28;27.20;99.90
5346;DHT22;2695;49.444;11.054;2023-08-21T01:22:56;27.10;99.90
5346;DHT22;2695;49.444;11.054;2023-08-21T01:25:25;27.00;99.90
5346;DHT22;2695;49.444;11.054;2023-08-21T01:27:53;27.00;99.90
5346;DHT22;2695;49.444;11.054;2023-08-21T01:30:21;26.80;99.90
5346;DHT22;2695;49.444;11.054;2023-08-21T01:32:56;26.70;99.90
5346;DHT22;2695;49.444;11.054;2023-08-21T01:35:27;26.50;99.90
5346;DHT22;2695;49.444;11.054;2023-08-21T01:37:57;26.30;99.90
5346;DHT22;2695;49.444;11.054;2023-08-21T01:40:27;26.20;99.90
5346;DHT22;2695;49.444;11.054;2023-08-21T01:42:55;26.20;99.90
5346;DHT22;2695;49.444;11.054;2023-08-21T01:45:23;26.10;99.90
5346;DHT22;2695;49.444;11.054;2023-08-21T01:47:51;26.10;99.90
5346;DHT22;2695;49.444;11.054;2023-08-21T01:50:19;26.10;99.90
5346;DHT22;2695;49.444;11.054;2023-08-21T01:52:47;26.10;99.90
5346;DHT22;2695;49.444;11.054;2023-08-21T01:57:49;26.20;99.90
5346;DHT22;2695;49.444;11.054;2023-08-21T02:00:17;26.20;99.90
5346;DHT22;2695;49.444;11.054;2023-08-21T02:02:45;26.20;99.90
5346;DHT22;2695;49.444;11.054;2023-08-21T02:05:13;26.20;99.90
5346;DHT22;2695;49.444;11.054;2023-08-21T02:07:41;26.30;99.90
5346;DHT22;2695;49.444;11.054;2023-08-21T02:10:10;26.40;99.90
5346;DHT22;2695;49.444;11.054;2023-08-21T02:12:38;26.30;99.90
5346;DHT22;2695;49.444;11.054;2023-08-21T02:15:09;26.40;99.90
5346;DHT22;2695;49.444;11.054;2023-08-21T02:17:37;26.40;99.90
5346;DHT22;2695;49.444;11.054;2023-08-21T02:20:06;26.40;99.90
5346;DHT22;2695;49.444;11.054;2023-08-21T02:22:34;26.40;99.90
5346;DHT22;2695;49.444;11.054;2023-08-21T02:25:03;26.30;99.90
5346;DHT22;2695;49.444;11.054;2023-08-21T02:27:31;26.20;99.90
5346;DHT22;2695;49.444;11.054;2023-08-21T02:29:59;26.20;99.90
5346;DHT22;2695;49.444;11.054;2023-08-21T02:32:28;26.20;99.90
5346;DHT22;2695;49.444;11.054;2023-08-21T02:34:56;26.20;99.90
5346;DHT22;2695;49.444;11.054;2023-08-21T02:37:24;26.20;99.90
5346;DHT22;2695;49.444;11.054;2023-08-21T02:39:52;26.20;99.90
5346;DHT22;2695;49.444;11.054;2023-08-21T02:42:20;26.10;99.90
5346;DHT22;2695;49.444;11.054;2023-08-21T02:44:48;26.10;99.90
5346;DHT22;2695;49.444;11.054;2023-08-21T02:47:16;26.00;99.90
5346;DHT22;2695;49.444;11.054;2023-08-21T02:49:45;26.00;99.90
5346;DHT22;2695;49.444;11.054;2023-08-21T02:52:13;26.00;99.90
5346;DHT22;2695;49.444;11.054;2023-08-21T02:54:41;26.00;99.90
5346;DHT22;2695;49.444;11.054;2023-08-21T02:57:09;26.00;99.90
5346;DHT22;2695;49.444;11.054;2023-08-21T02:59:37;26.00;99.90
5346;DHT22;2695;49.444;11.054;2023-08-21T03:02:05;25.90;99.90
5346;DHT22;2695;49.444;11.054;2023-08-21T03:04:33;25.90;99.90
5346;DHT22;2695;49.444;11.054;2023-08-21T03:07:02;25.90;99.90
5346;DHT22;2695;49.444;11.054;2023-08-21T03:09:30;25.80;99.90
5346;DHT22;2695;49.444;11.054;2023-08-21T03:11:58;25.80;99.90
5346;DHT22;2695;49.444;11.054;2023-08-21T03:14:26;25.90;99.90
5346;DHT22;2695;49.444;11.054;2023-08-21T03:16:54;25.80;99.90
5346;DHT22;2695;49.444;11.054;2023-08-21T03:19:22;25.80;99.90
5346;DHT22;2695;49.444;11.054;2023-08-21T03:21:50;25.70;99.90
5346;DHT22;2695;49.444;11.054;2023-08-21T03:24:20;25.70;99.90
5346;DHT22;2695;49.444;11.054;2023-08-21T03:26:48;25.70;99.90
5346;DHT22;2695;49.444;11.054;2023-08-21T03:29:16;25.60;99.90
5346;DHT22;2695;49.444;11.054;2023-08-21T03:31:47;25.60;99.90
5346;DHT22;2695;49.444;11.054;2023-08-21T03:34:15;25.50;99.90
5346;DHT22;2695;49.444;11.054;2023-08-21T03:36:43;25.60;99.90
5346;DHT22;2695;49.444;11.054;2023-08-21T03:39:11;25.60;99.90
5346;DHT22;2695;49.444;11.054;2023-08-21T03:41:40;25.60;99.90
5346;DHT22;2695;49.444;11.054;2023-08-21T03:44:08;25.50;99.90
5346;DHT22;2695;49.444;11.054;2023-08-21T03:46:36;25.50;99.90
5346;DHT22;2695;49.444;11.054;2023-08-21T03:49:04;25.50;99.90
5346;DHT22;2695;49.444;11.054;2023-08-21T03:51:32;25.50;99.90
5346;DHT22;2695;49.444;11.054;2023-08-21T03:54:00;25.40;99.90
5346;DHT22;2695;49.444;11.054;2023-08-21T03:56:28;25.40;99.90
5346;DHT22;2695;49.444;11.054;2023-08-21T03:58:57;25.40;99.90
5346;DHT22;2695;49.444;11.054;2023-08-21T04:01:25;25.40;99.90
5346;DHT22;2695;49.444;11.054;2023-08-21T04:03:53;25.40;99.90
5346;DHT22;2695;49.444;11.054;2023-08-21T04:06:21;25.40;99.90
5346;DHT22;2695;49.444;11.054;2023-08-21T04:08:49;25.40;99.90
5346;DHT22;2695;49.444;11.054;2023-08-21T04:11:17;25.40;99.90
5346;DHT22;2695;49.444;11.054;2023-08-21T04:13:45;25.40;99.90
5346;DHT22;2695;49.444;11.054;2023-08-21T04:16:14;25.40;99.90
5346;DHT22;2695;49.444;11.054;2023-08-21T04:18:44;25.40;99.90
5346;DHT22;2695;49.444;11.054;2023-08-21T04:21:12;25.40;99.90
5346;DHT22;2695;49.444;11.054;2023-08-21T04:23:40;25.40;99.90
5346;DHT22;2695;49.444;11.054;2023-08-21T04:26:08;25.40;99.90
5346;DHT22;2695;49.444;11.054;2023-08-21T04:28:36;25.40;99.90
5346;DHT22;2695;49.444;11.054;2023-08-21T04:31:04;25.40;99.90
5346;DHT22;2695;49.444;11.054;2023-08-21T04:33:34;25.40;99.90
5346;DHT22;2695;49.444;11.054;2023-08-21T04:36:03;25.40;99.90
5346;DHT22;2695;49.444;11.054;2023-08-21T04:38:31;25.50;99.90
5346;DHT22;2695;49.444;11.054;2023-08-21T04:41:06;25.50;99.90
5346;DHT22;2695;49.444;11.054;2023-08-21T04:43:34;25.50;99.90
5346;DHT22;2695;49.444;11.054;2023-08-21T04:46:02;25.70;99.90
5346;DHT22;2695;49.444;11.054;2023-08-21T04:48:30;25.80;99.90
5346;DHT22;2695;49.444;11.054;2023-08-21T04:50:59;26.10;99.90
5346;DHT22;2695;49.444;11.054;2023-08-21T04:53:27;26.50;99.90
5346;DHT22;2695;49.444;11.054;2023-08-21T04:55:58;26.80;99.90
5346;DHT22;2695;49.444;11.054;2023-08-21T04:58:26;27.20;99.90
5346;DHT22;2695;49.444;11.054;2023-08-21T05:00:54;27.50;99.90
5346;DHT22;2695;49.444;11.054;2023-08-21T05:03:22;27.50;99.90
5346;DHT22;2695;49.444;11.054;2023-08-21T05:05:53;27.40;99.90
5346;DHT22;2695;49.444;11.054;2023-08-21T05:08:23;27.40;99.90
5346;DHT22;2695;49.444;11.054;2023-08-21T05:10:55;27.50;99.90
5346;DHT22;2695;49.444;11.054;2023-08-21T05:13:23;27.80;99.90
5346;DHT22;2695;49.444;11.054;2023-08-21T05:15:52;28.30;99.90
5346;DHT22;2695;49.444;11.054;2023-08-21T05:18:21;28.90;99.90
5346;DHT22;2695;49.444;11.054;2023-08-21T05:20:51;29.50;99.90
5346;DHT22;2695;49.444;11.054;2023-08-21T05:23:19;29.80;99.90
5346;DHT22;2695;49.444;11.054;2023-08-21T05:25:48;29.70;99.90
5346;DHT22;2695;49.444;11.054;2023-08-21T05:28:17;29.40;99.90
5346;DHT22;2695;49.444;11.054;2023-08-21T05:30:46;29.30;99.90
5346;DHT22;2695;49.444;11.054;2023-08-21T05:33:15;29.50;99.90
5346;DHT22;2695;49.444;11.054;2023-08-21T05:35:43;29.80;99.90
5346;DHT22;2695;49.444;11.054;2023-08-21T05:38:11;30.20;99.90
5346;DHT22;2695;49.444;11.054;2023-08-21T05:40:40;30.40;99.90
5346;DHT22;2695;49.444;11.054;2023-08-21T05:43:10;30.40;99.90
5346;DHT22;2695;49.444;11.054;2023-08-21T05:45:38;30.70;99.90
5346;DHT22;2695;49.444;11.054;2023-08-21T05:48:06;31.30;99.90
5346;DHT22;2695;49.444;11.054;2023-08-21T05:50:34;31.80;99.90
5346;DHT22;2695;49.444;11.054;2023-08-21T05:53:03;32.00;99.90
5346;DHT22;2695;49.444;11.054;2023-08-21T05:55:31;32.60;99.90
5346;DHT22;2695;49.444;11.054;2023-08-21T05:57:59;33.10;99.90
5346;DHT22;2695;49.444;11.054;2023-08-21T06:00:29;33.70;99.90
5346;DHT22;2695;49.444;11.054;2023-08-21T06:02:57;33.50;99.90
5346;DHT22;2695;49.444;11.054;2023-08-21T06:05:25;33.20;99.90
5346;DHT22;2695;49.444;11.054;2023-08-21T06:07:53;33.20;99.90
5346;DHT22;2695;49.444;11.054;2023-08-21T06:10:21;34.10;99.90
5346;DHT22;2695;49.444;11.054;2023-08-21T06:12:49;35.30;99.90
5346;DHT22;2695;49.444;11.054;2023-08-21T06:15:18;35.80;99.90
5346;DHT22;2695;49.444;11.054;2023-08-21T06:17:47;35.60;99.90
5346;DHT22;2695;49.444;11.054;2023-08-21T06:20:15;35.60;99.90
5346;DHT22;2695;49.444;11.054;2023-08-21T06:22:43;35.50;99.90
5346;DHT22;2695;49.444;11.054;2023-08-21T06:25:11;36.10;99.90
5346;DHT22;2695;49.444;11.054;2023-08-21T06:27:39;36.80;98.00
5346;DHT22;2695;49.444;11.054;2023-08-21T06:30:24;37.40;97.10
5346;DHT22;2695;49.444;11.054;2023-08-21T06:32:53;38.00;95.20
5346;DHT22;2695;49.444;11.054;2023-08-21T06:35:21;38.60;93.60
5346;DHT22;2695;49.444;11.054;2023-08-21T06:37:50;39.10;91.60
5346;DHT22;2695;49.444;11.054;2023-08-21T06:40:17;38.70;91.40
5346;DHT22;2695;49.444;11.054;2023-08-21T06:42:45;38.60;91.70
5346;DHT22;2695;49.444;11.054;2023-08-21T06:45:16;39.10;90.20
5346;DHT22;2695;49.444;11.054;2023-08-21T06:47:44;39.70;87.80
5346;DHT22;2695;49.444;11.054;2023-08-21T06:50:13;39.80;85.40
5346;DHT22;2695;49.444;11.054;2023-08-21T06:52:41;39.60;85.80
5346;DHT22;2695;49.444;11.054;2023-08-21T06:55:10;39.90;84.80
5346;DHT22;2695;49.444;11.054;2023-08-21T06:57:38;40.70;83.20
5346;DHT22;2695;49.444;11.054;2023-08-21T07:00:07;41.40;78.10
5346;DHT22;2695;49.444;11.054;2023-08-21T07:02:36;41.00;77.60
5346;DHT22;2695;49.444;11.054;2023-08-21T07:05:04;40.50;77.40
5346;DHT22;2695;49.444;11.054;2023-08-21T07:07:35;39.40;79.90
5346;DHT22;2695;49.444;11.054;2023-08-21T07:10:04;39.20;81.80
5346;DHT22;2695;49.444;11.054;2023-08-21T07:12:32;40.00;79.50
5346;DHT22;2695;49.444;11.054;2023-08-21T07:15:00;40.40;78.60
5346;DHT22;2695;49.444;11.054;2023-08-21T07:17:28;40.60;76.20
5346;DHT22;2695;49.444;11.054;2023-08-21T07:19:56;40.20;76.20
5346;DHT22;2695;49.444;11.054;2023-08-21T07:22:24;39.80;78.10
5346;DHT22;2695;49.444;11.054;2023-08-21T07:24:53;40.10;76.80
5346;DHT22;2695;49.444;11.054;2023-08-21T07:27:22;40.00;75.70
5346;DHT22;2695;49.444;11.054;2023-08-21T07:29:49;39.60;77.20
5346;DHT22;2695;49.444;11.054;2023-08-21T07:32:17;40.10;76.70
5346;DHT22;2695;49.444;11.054;2023-08-21T07:34:45;41.00;74.80
5346;DHT22;2695;49.444;11.054;2023-08-21T07:37:13;42.10;70.40
5346;DHT22;2695;49.444;11.054;2023-08-21T07:39:41;42.80;68.00
5346;DHT22;2695;49.444;11.054;2023-08-21T07:42:12;43.70;63.80
5346;DHT22;2695;49.444;11.054;2023-08-21T07:44:40;44.30;62.00
5346;DHT22;2695;49.444;11.054;2023-08-21T07:47:08;44.90;60.10
5346;DHT22;2695;49.444;11.054;2023-08-21T07:49:36;45.70;57.70
5346;DHT22;2695;49.444;11.054;2023-08-21T07:52:05;46.20;54.60
5346;DHT22;2695;49.444;11.054;2023-08-21T07:54:33;45.30;55.50
5346;DHT22;2695;49.444;11.054;2023-08-21T07:57:01;44.20;56.90
5346;DHT22;2695;49.444;11.054;2023-08-21T07:59:31;42.70;58.70
5346;DHT22;2695;49.444;11.054;2023-08-21T08:01:59;42.10;61.20
5346;DHT22;2695;49.444;11.054;2023-08-21T08:04:29;42.40;61.00
5346;DHT22;2695;49.444;11.054;2023-08-21T08:06:57;43.30;59.30
5346;DHT22;2695;49.444;11.054;2023-08-21T08:09:25;44.10;57.50
5346;DHT22;2695;49.444;11.054;2023-08-21T08:11:53;45.20;55.10
5346;DHT22;2695;49.444;11.054;2023-08-21T08:14:21;45.80;53.60
5346;DHT22;2695;49.444;11.054;2023-08-21T08:16:50;46.40;52.70
5346;DHT22;2695;49.444;11.054;2023-08-21T08:19:18;46.90;51.20
5346;DHT22;2695;49.444;11.054;2023-08-21T08:21:46;47.20;49.60
5346;DHT22;2695;49.444;11.054;2023-08-21T08:24:14;47.50;47.90
5346;DHT22;2695;49.444;11.054;2023-08-21T08:26:42;48.00;47.80
5346;DHT22;2695;49.444;11.054;2023-08-21T08:29:10;48.40;46.10
5346;DHT22;2695;49.444;11.054;2023-08-21T08:31:38;48.30;45.70
5346;DHT22;2695;49.444;11.054;2023-08-21T08:34:08;48.30;45.60
5346;DHT22;2695;49.444;11.054;2023-08-21T08:36:36;48.40;45.40
5346;DHT22;2695;49.444;11.054;2023-08-21T08:39:04;48.60;44.60
5346;DHT22;2695;49.444;11.054;2023-08-21T08:41:46;48.60;44.00
5346;DHT22;2695;49.444;11.054;2023-08-21T08:44:16;48.60;44.10
5346;DHT22;2695;49.444;11.054;2023-08-21T08:46:44;48.70;44.30
5346;DHT22;2695;49.444;11.054;2023-08-21T08:49:13;48.90;43.10
5346;DHT22;2695;49.444;11.054;2023-08-21T08:51:42;49.00;43.00
5346;DHT22;2695;49.444;11.054;2023-08-21T08:54:12;49.30;42.70
5346;DHT22;2695;49.444;11.054;2023-08-21T08:56:40;49.40;42.00
5346;DHT22;2695;49.444;11.054;2023-08-21T08:59:08;49.40;41.90
5346;DHT22;2695;49.444;11.054;2023-08-21T09:01:36;49.60;41.20
5346;DHT22;2695;49.444;11.054;2023-08-21T09:04:04;49.70;41.50
5346;DHT22;2695;49.444;11.054;2023-08-21T09:06:34;49.70;41.30
5346;DHT22;2695;49.444;11.054;2023-08-21T09:09:02;50.00;41.10
5346;DHT22;2695;49.444;11.054;2023-08-21T09:11:31;50.10;40.70
5346;DHT22;2695;49.444;11.054;2023-08-21T09:14:00;50.00;40.50
5346;DHT22;2695;49.444;11.054;2023-08-21T09:16:28;49.70;41.20
5346;DHT22;2695;49.444;11.054;2023-08-21T09:18:56;49.70;40.50
5346;DHT22;2695;49.444;11.054;2023-08-21T09:21:25;49.80;40.50
5346;DHT22;2695;49.444;11.054;2023-08-21T09:23:58;49.70;39.90
5346;DHT22;2695;49.444;11.054;2023-08-21T09:26:27;49.70;39.30
5346;DHT22;2695;49.444;11.054;2023-08-21T09:29:03;49.60;39.30
5346;DHT22;2695;49.444;11.054;2023-08-21T09:31:33;49.60;39.30
5346;DHT22;2695;49.444;11.054;2023-08-21T09:34:04;49.70;39.40
5346;DHT22;2695;49.444;11.054;2023-08-21T09:36:33;49.70;39.30
5346;DHT22;2695;49.444;11.054;2023-08-21T09:39:03;49.60;39.60
5346;DHT22;2695;49.444;11.054;2023-08-21T09:41:33;49.80;39.40
5346;DHT22;2695;49.444;11.054;2023-08-21T09:44:01;50.00;38.70
5346;DHT22;2695;49.444;11.054;2023-08-21T09:46:30;50.10;39.00
5346;DHT22;2695;49.444;11.054;2023-08-21T09:48:58;50.20;37.90
5346;DHT22;2695;49.444;11.054;2023-08-21T09:51:27;50.30;38.00
5346;DHT22;2695;49.444;11.054;2023-08-21T09:53:55;50.20;37.20
5346;DHT22;2695;49.444;11.054;2023-08-21T09:56:26;50.10;37.40
5346;DHT22;2695;49.444;11.054;2023-08-21T09:58:55;49.80;37.00
5346;DHT22;2695;49.444;11.054;2023-08-21T10:01:24;49.70;37.40
5346;DHT22;2695;49.444;11.054;2023-08-21T10:03:54;49.90;36.40
5346;DHT22;2695;49.444;11.054;2023-08-21T10:06:23;49.70;36.60
5346;DHT22;2695;49.444;11.054;2023-08-21T10:08:54;49.20;36.30
5346;DHT22;2695;49.444;11.054;2023-08-21T10:11:23;48.80;37.20
5346;DHT22;2695;49.444;11.054;2023-08-21T10:13:52;48.70;38.10
5346;DHT22;2695;49.444;11.054;2023-08-21T10:16:21;48.70;37.90
5346;DHT22;2695;49.444;11.054;2023-08-21T10:18:49;48.60;37.20
5346;DHT22;2695;49.444;11.054;2023-08-21T10:21:19;48.40;37.10
5346;DHT22;2695;49.444;11.054;2023-08-21T10:23:49;48.30;38.10
5346;DHT22;2695;49.444;11.054;2023-08-21T10:26:19;48.20;38.40
5346;DHT22;2695;49.444;11.054;2023-08-21T10:28:49;48.20;38.40
5346;DHT22;2695;49.444;11.054;2023-08-21T10:31:37;47.90;39.00
5346;DHT22;2695;49.444;11.054;2023-08-21T10:34:07;48.00;38.90
5346;DHT22;2695;49.444;11.054;2023-08-21T10:39:28;48.00;37.40
5346;DHT22;2695;49.444;11.054;2023-08-21T10:42:00;47.90;38.10
5346;DHT22;2695;49.444;11.054;2023-08-21T10:44:36;48.10;38.50
5346;DHT22;2695;49.444;11.054;2023-08-21T10:47:16;48.10;36.60
5346;DHT22;2695;49.444;11.054;2023-08-21T10:49:45;47.90;36.50
5346;DHT22;2695;49.444;11.054;2023-08-21T10:52:14;47.70;36.90
5346;DHT22;2695;49.444;11.054;2023-08-21T10:54:46;47.70;37.60
5346;DHT22;2695;49.444;11.054;2023-08-21T10:57:14;47.70;37.10
5346;DHT22;2695;49.444;11.054;2023-08-21T10:59:56;47.70;36.90
5346;DHT22;2695;49.444;11.054;2023-08-21T11:02:28;47.50;35.90
5346;DHT22;2695;49.444;11.054;2023-08-21T11:04:57;46.90;36.10
5346;DHT22;2695;49.444;11.054;2023-08-21T11:07:25;46.00;37.50
5346;DHT22;2695;49.444;11.054;2023-08-21T11:09:54;45.50;38.80
5346;DHT22;2695;49.444;11.054;2023-08-21T11:12:24;45.20;39.80
5346;DHT22;2695;49.444;11.054;2023-08-21T11:14:52;45.20;38.90
5346;DHT22;2695;49.444;11.054;2023-08-21T11:17:20;45.30;38.50
5346;DHT22;2695;49.444;11.054;2023-08-21T11:19:51;45.20;39.20
5346;DHT22;2695;49.444;11.054;2023-08-21T11:22:19;45.20;38.70
5346;DHT22;2695;49.444;11.054;2023-08-21T11:24:48;45.00;38.60
5346;DHT22;2695;49.444;11.054;2023-08-21T11:27:18;44.90;39.00
5346;DHT22;2695;49.444;11.054;2023-08-21T11:30:00;44.80;39.30
5346;DHT22;2695;49.444;11.054;2023-08-21T11:32:28;44.80;39.70
5346;DHT22;2695;49.444;11.054;2023-08-21T11:34:58;44.60;40.00
5346;DHT22;2695;49.444;11.054;2023-08-21T11:37:26;44.40;39.90
5346;DHT22;2695;49.444;11.054;2023-08-21T11:39:56;44.10;40.10
5346;DHT22;2695;49.444;11.054;2023-08-21T11:42:29;43.90;40.70
5346;DHT22;2695;49.444;11.054;2023-08-21T11:44:58;43.70;41.50
5346;DHT22;2695;49.444;11.054;2023-08-21T11:47:30;43.70;40.80
5346;DHT22;2695;49.444;11.054;2023-08-21T11:50:04;43.70;40.80
5346;DHT22;2695;49.444;11.054;2023-08-21T11:52:32;43.50;41.40
5346;DHT22;2695;49.444;11.054;2023-08-21T11:55:02;43.40;41.30
5346;DHT22;2695;49.444;11.054;2023-08-21T11:57:34;43.20;41.30
5346;DHT22;2695;49.444;11.054;2023-08-21T12:00:03;43.10;41.70
5346;DHT22;2695;49.444;11.054;2023-08-21T12:02:33;43.10;41.70
5346;DHT22;2695;49.444;11.054;2023-08-21T12:05:03;42.90;41.90
5346;DHT22;2695;49.444;11.054;2023-08-21T12:07:32;42.70;42.30
5346;DHT22;2695;49.444;11.054;2023-08-21T12:10:00;42.60;42.40
5346;DHT22;2695;49.444;11.054;2023-08-21T12:12:28;42.30;42.40
5346;DHT22;2695;49.444;11.054;2023-08-21T12:14:56;42.10;42.30
5346;DHT22;2695;49.444;11.054;2023-08-21T12:17:24;42.00;42.50
5346;DHT22;2695;49.444;11.054;2023-08-21T12:19:52;41.90;43.60
5346;DHT22;2695;49.444;11.054;2023-08-21T12:22:22;41.80;43.80
5346;DHT22;2695;49.444;11.054;2023-08-21T12:24:49;41.70;44.20
5346;DHT22;2695;49.444;11.054;2023-08-21T12:27:17;41.50;44.00
5346;DHT22;2695;49.444;11.054;2023-08-21T12:29:46;41.20;44.20
5346;DHT22;2695;49.444;11.054;2023-08-21T12:32:14;40.80;45.00
5346;DHT22;2695;49.444;11.054;2023-08-21T12:34:43;40.60;45.60
5346;DHT22;2695;49.444;11.054;2023-08-21T12:37:11;40.30;45.70
5346;DHT22;2695;49.444;11.054;2023-08-21T12:39:44;40.10;46.00
5346;DHT22;2695;49.444;11.054;2023-08-21T12:42:12;39.90;47.10
5346;DHT22;2695;49.444;11.054;2023-08-21T12:44:40;39.70;48.00
5346;DHT22;2695;49.444;11.054;2023-08-21T12:47:08;39.50;47.90
5346;DHT22;2695;49.444;11.054;2023-08-21T12:49:36;39.30;47.50
5346;DHT22;2695;49.444;11.054;2023-08-21T12:52:04;39.10;47.70
5346;DHT22;2695;49.444;11.054;2023-08-21T12:54:36;38.80;48.50
5346;DHT22;2695;49.444;11.054;2023-08-21T12:57:06;38.60;49.00
5346;DHT22;2695;49.444;11.054;2023-08-21T12:59:34;38.30;49.90
5346;DHT22;2695;49.444;11.054;2023-08-21T13:02:02;38.10;51.30
5346;DHT22;2695;49.444;11.054;2023-08-21T13:04:32;38.00;51.20
5346;DHT22;2695;49.444;11.054;2023-08-21T13:07:00;38.00;51.30
5346;DHT22;2695;49.444;11.054;2023-08-21T13:09:30;37.90;51.00
5346;DHT22;2695;49.444;11.054;2023-08-21T13:11:58;37.90;51.00
5346;DHT22;2695;49.444;11.054;2023-08-21T13:14:27;38.00;52.00
5346;DHT22;2695;49.444;11.054;2023-08-21T13:16:58;38.10;51.00
5346;DHT22;2695;49.444;11.054;2023-08-21T13:19:26;38.20;51.10
5346;DHT22;2695;49.444;11.054;2023-08-21T13:21:54;38.10;51.10
5346;DHT22;2695;49.444;11.054;2023-08-21T13:24:22;38.00;51.20
5346;DHT22;2695;49.444;11.054;2023-08-21T13:26:50;37.80;51.10
5346;DHT22;2695;49.444;11.054;2023-08-21T13:29:18;37.60;51.50
5346;DHT22;2695;49.444;11.054;2023-08-21T13:31:47;37.60;51.70
5346;DHT22;2695;49.444;11.054;2023-08-21T13:34:15;37.40;52.10
5346;DHT22;2695;49.444;11.054;2023-08-21T13:36:43;37.30;53.00
5346;DHT22;2695;49.444;11.054;2023-08-21T13:39:11;37.10;52.30
5346;DHT22;2695;49.444;11.054;2023-08-21T13:41:42;37.10;52.30
5346;DHT22;2695;49.444;11.054;2023-08-21T13:44:10;37.00;52.30
5346;DHT22;2695;49.444;11.054;2023-08-21T13:46:38;36.90;52.30
5346;DHT22;2695;49.444;11.054;2023-08-21T13:49:07;36.80;52.60
5346;DHT22;2695;49.444;11.054;2023-08-21T13:51:36;36.80;52.30
5346;DHT22;2695;49.444;11.054;2023-08-21T13:54:04;36.90;51.60
5346;DHT22;2695;49.444;11.054;2023-08-21T13:56:32;36.80;51.40
5346;DHT22;2695;49.444;11.054;2023-08-21T13:59:00;36.80;52.00
5346;DHT22;2695;49.444;11.054;2023-08-21T14:01:29;36.80;52.50
5346;DHT22;2695;49.444;11.054;2023-08-21T14:03:56;36.80;51.90
5346;DHT22;2695;49.444;11.054;2023-08-21T14:06:26;36.90;52.70
5346;DHT22;2695;49.444;11.054;2023-08-21T14:08:55;36.80;52.50
5346;DHT22;2695;49.444;11.054;2023-08-21T14:11:23;36.70;52.50
5346;DHT22;2695;49.444;11.054;2023-08-21T14:13:51;36.60;52.20
5346;DHT22;2695;49.444;11.054;2023-08-21T14:16:19;36.50;52.80
5346;DHT22;2695;49.444;11.054;2023-08-21T14:18:47;36.50;52.50
5346;DHT22;2695;49.444;11.054;2023-08-21T14:21:15;36.50;53.40
5346;DHT22;2695;49.444;11.054;2023-08-21T14:23:44;36.40;53.40
5346;DHT22;2695;49.444;11.054;2023-08-21T14:26:12;36.40;53.40
5346;DHT22;2695;49.444;11.054;2023-08-21T14:28:40;36.30;53.90
5346;DHT22;2695;49.444;11.054;2023-08-21T14:31:08;36.20;53.30
5346;DHT22;2695;49.444;11.054;2023-08-21T14:33:36;36.20;53.30
5346;DHT22;2695;49.444;11.054;2023-08-21T14:36:05;36.20;53.40
5346;DHT22;2695;49.444;11.054;2023-08-21T14:38:33;36.10;54.60
5346;DHT22;2695;49.444;11.054;2023-08-21T14:41:02;36.00;54.50
5346;DHT22;2695;49.444;11.054;2023-08-21T14:43:30;35.90;54.60
5346;DHT22;2695;49.444;11.054;2023-08-21T14:45:59;35.90;55.00
5346;DHT22;2695;49.444;11.054;2023-08-21T14:48:26;35.80;55.20
5346;DHT22;2695;49.444;11.054;2023-08-21T14:50:54;35.60;55.80
5346;DHT22;2695;49.444;11.054;2023-08-21T14:53:22;35.60;56.10
5346;DHT22;2695;49.444;11.054;2023-08-21T14:55:53;35.60;55.30
5346;DHT22;2695;49.444;11.054;2023-08-21T14:58:23;35.60;54.90
5346;DHT22;2695;49.444;11.054;2023-08-21T15:00:54;35.60;54.50
5346;DHT22;2695;49.444;11.054;2023-08-21T15:03:22;35.60;54.80
5346;DHT22;2695;49.444;11.054;2023-08-21T15:05:50;35.50;54.80
5346;DHT22;2695;49.444;11.054;2023-08-21T15:08:19;35.40;54.90
5346;DHT22;2695;49.444;11.054;2023-08-21T15:10:47;35.30;55.80
5346;DHT22;2695;49.444;11.054;2023-08-21T15:13:14;35.30;55.90
5346;DHT22;2695;49.444;11.054;2023-08-21T15:15:44;35.30;56.20
5346;DHT22;2695;49.444;11.054;2023-08-21T15:18:12;35.30;55.50
5346;DHT22;2695;49.444;11.054;2023-08-21T15:20:40;35.30;55.50
5346;DHT22;2695;49.444;11.054;2023-08-21T15:23:08;35.30;55.70
5346;DHT22;2695;49.444;11.054;2023-08-21T15:25:36;35.20;56.20
5346;DHT22;2695;49.444;11.054;2023-08-21T15:28:04;35.30;55.90
5346;DHT22;2695;49.444;11.054;2023-08-21T15:30:33;35.30;55.90
5346;DHT22;2695;49.444;11.054;2023-08-21T15:33:02;35.40;55.90
5346;DHT22;2695;49.444;11.054;2023-08-21T15:35:31;35.30;55.60
5346;DHT22;2695;49.444;11.054;2023-08-21T15:37:58;35.30;56.40
5346;DHT22;2695;49.444;11.054;2023-08-21T15:40:26;35.20;55.90
5346;DHT22;2695;49.444;11.054;2023-08-21T15:42:54;35.10;56.90
5346;DHT22;2695;49.444;11.054;2023-08-21T15:45:23;35.00;57.10
5346;DHT22;2695;49.444;11.054;2023-08-21T15:47:51;35.00;57.90
5346;DHT22;2695;49.444;11.054;2023-08-21T15:50:20;34.90;56.80
5346;DHT22;2695;49.444;11.054;2023-08-21T15:52:48;34.90;57.60
5346;DHT22;2695;49.444;11.054;2023-08-21T15:55:16;34.80;56.60
5346;DHT22;2695;49.444;11.054;2023-08-21T15:57:44;34.80;56.50
5346;DHT22;2695;49.444;11.054;2023-08-21T16:00:13;34.70;56.80